Paris, TN (38242)

8:11 AM CST on February 28, 2015 (GMT -0600)
Highway 69 N | Change Station
CLOSE
Current Station
Personal Weather Station
Location: Paris, TN
Elevation: 495 ft
Nearby Weather Stations

Elev 495 ft 36.31 °N, 88.34 °W | Updated 3 minutes ago

Overcast
Overcast
25.7 °F
Feels Like 26 °F
N
1.0
Wind Variable Wind from NE
Gusts 5.0 mph

Today
High -- | Low -- °F
--% Chance of Precip.
Yesterday
High -- | Low -- °F
Precip. -- in
6:25 AM 5:46 PM
Waxing Gibbous, 77% visible
Pressure 30.61 in
Visibility 10.0 miles
Clouds Few 3400 ft
Scattered Clouds 5000 ft
Windchill 26 °F
Dew Point 16 °F
Humidity 68%
Rainfall 0.00 in
Snow Depth Not available.
UV 0.6 out of 12
Pollen 4.90 out of 12
Air Quality Not available.
Flu Activity Not available.
METAR KCEY 281355Z AUTO 06009KT 10SM FEW034 SCT050 M05/M11 A3061 RMK AO1

More Conditions Fewer Conditions

Pressure 30.61 in
Visibility 10.0 miles
Clouds Few 3400 ft
Scattered Clouds 5000 ft
Windchill 26 °F
Dew Point 16 °F
Humidity 68%
Rainfall 0.00 in
Snow Depth Not available.
UV 0.6 out of 12
Pollen 4.90 out of 12
Air Quality Not available.
Flu Activity Not available.
METAR KCEY 281355Z AUTO 06009KT 10SM FEW034 SCT050 M05/M11 A3061 RMK AO1

More Conditions Fewer Conditions

10-Day Weather Forecast

Almanac

Astronomy

Feb. 28, 2015 Rise Set
Actual Time
Civil Twilight
Nautical Twilight
Astronomical Twilight
Moon
Length of Visible Light
Length of Day
Tomorrow will be .
, % of the Moon is Illuminated

Today's Extremes

State Highs State Lows

Community

WunderPhotos

Upload Photos

1,801,021 photos uploaded!

WunderBlogs® & News

Nearby

Air Quality

  Air Quality AQ Index Pollutant
Not available.

Snow Depth

Station Depth Elevation

Earthquake Activity

City Distance Mag. Time & Date
Minimum magnitude displayed is 2.5.

Coastal Water Temperatures

Place Temperature

Nearby Weather Stations